sensor_id;sensor_type;location;lat;lon;timestamp;P1;durP1;ratioP1;P2;durP2;ratioP2
18449;SDS011;9354;50.194;7.690;2023-08-20T00:02:02;11.87;;;8.43;;
18449;SDS011;9354;50.194;7.690;2023-08-20T00:04:35;14.20;;;8.90;;
18449;SDS011;9354;50.194;7.690;2023-08-20T00:07:03;10.07;;;7.73;;
18449;SDS011;9354;50.194;7.690;2023-08-20T00:09:32;11.10;;;7.80;;
18449;SDS011;9354;50.194;7.690;2023-08-20T00:12:00;11.47;;;7.50;;
18449;SDS011;9354;50.194;7.690;2023-08-20T00:17:22;15.20;;;8.63;;
18449;SDS011;9354;50.194;7.690;2023-08-20T00:19:53;15.57;;;8.17;;
18449;SDS011;9354;50.194;7.690;2023-08-20T00:22:21;13.57;;;8.37;;
18449;SDS011;9354;50.194;7.690;2023-08-20T00:24:51;18.60;;;8.50;;
18449;SDS011;9354;50.194;7.690;2023-08-20T00:27:19;13.77;;;7.70;;
18449;SDS011;9354;50.194;7.690;2023-08-20T00:29:47;15.03;;;7.07;;
18449;SDS011;9354;50.194;7.690;2023-08-20T00:32:14;15.60;;;7.20;;
18449;SDS011;9354;50.194;7.690;2023-08-20T00:34:42;13.17;;;7.23;;
18449;SDS011;9354;50.194;7.690;2023-08-20T00:37:10;15.73;;;9.17;;
18449;SDS011;9354;50.194;7.690;2023-08-20T00:39:37;15.83;;;8.40;;
18449;SDS011;9354;50.194;7.690;2023-08-20T00:42:06;13.10;;;7.30;;
18449;SDS011;9354;50.194;7.690;2023-08-20T00:44:34;12.03;;;8.30;;
18449;SDS011;9354;50.194;7.690;2023-08-20T00:47:02;12.50;;;8.33;;
18449;SDS011;9354;50.194;7.690;2023-08-20T00:49:31;11.67;;;8.30;;
18449;SDS011;9354;50.194;7.690;2023-08-20T00:51:59;15.23;;;8.60;;
18449;SDS011;9354;50.194;7.690;2023-08-20T00:54:27;11.17;;;7.93;;
18449;SDS011;9354;50.194;7.690;2023-08-20T00:56:55;13.97;;;8.07;;
18449;SDS011;9354;50.194;7.690;2023-08-20T00:59:24;12.83;;;8.33;;
18449;SDS011;9354;50.194;7.690;2023-08-20T01:01:52;16.57;;;7.17;;
18449;SDS011;9354;50.194;7.690;2023-08-20T01:04:20;13.90;;;8.50;;
18449;SDS011;9354;50.194;7.690;2023-08-20T01:06:51;13.97;;;7.80;;
18449;SDS011;9354;50.194;7.690;2023-08-20T01:09:28;13.13;;;8.13;;
18449;SDS011;9354;50.194;7.690;2023-08-20T01:12:03;10.43;;;7.60;;
18449;SDS011;9354;50.194;7.690;2023-08-20T01:14:34;12.50;;;7.83;;
18449;SDS011;9354;50.194;7.690;2023-08-20T01:17:02;11.50;;;7.37;;
18449;SDS011;9354;50.194;7.690;2023-08-20T01:19:29;12.50;;;7.60;;
18449;SDS011;9354;50.194;7.690;2023-08-20T01:22:04;15.97;;;8.40;;
18449;SDS011;9354;50.194;7.690;2023-08-20T01:24:45;12.77;;;8.93;;
18449;SDS011;9354;50.194;7.690;2023-08-20T01:27:26;14.90;;;9.47;;
18449;SDS011;9354;50.194;7.690;2023-08-20T01:30:05;13.30;;;7.93;;
18449;SDS011;9354;50.194;7.690;2023-08-20T01:32:33;13.40;;;8.40;;
18449;SDS011;9354;50.194;7.690;2023-08-20T01:35:02;15.93;;;8.30;;
18449;SDS011;9354;50.194;7.690;2023-08-20T01:37:30;13.43;;;7.87;;
18449;SDS011;9354;50.194;7.690;2023-08-20T01:39:57;14.80;;;9.17;;
18449;SDS011;9354;50.194;7.690;2023-08-20T01:42:24;14.93;;;8.67;;
18449;SDS011;9354;50.194;7.690;2023-08-20T01:44:52;14.67;;;8.40;;
18449;SDS011;9354;50.194;7.690;2023-08-20T01:47:20;19.30;;;8.50;;
18449;SDS011;9354;50.194;7.690;2023-08-20T01:49:48;15.63;;;10.13;;
18449;SDS011;9354;50.194;7.690;2023-08-20T01:52:15;13.73;;;8.90;;
18449;SDS011;9354;50.194;7.690;2023-08-20T01:54:43;16.10;;;9.13;;
18449;SDS011;9354;50.194;7.690;2023-08-20T01:57:10;15.70;;;8.90;;
18449;SDS011;9354;50.194;7.690;2023-08-20T01:59:37;15.23;;;9.17;;
18449;SDS011;9354;50.194;7.690;2023-08-20T02:02:05;14.87;;;9.60;;
18449;SDS011;9354;50.194;7.690;2023-08-20T02:04:34;16.97;;;10.30;;
18449;SDS011;9354;50.194;7.690;2023-08-20T02:07:01;17.07;;;10.10;;
18449;SDS011;9354;50.194;7.690;2023-08-20T02:09:29;15.87;;;10.43;;
18449;SDS011;9354;50.194;7.690;2023-08-20T02:11:56;15.50;;;9.40;;
18449;SDS011;9354;50.194;7.690;2023-08-20T02:14:23;12.77;;;8.90;;
18449;SDS011;9354;50.194;7.690;2023-08-20T02:16:52;16.27;;;9.10;;
18449;SDS011;9354;50.194;7.690;2023-08-20T02:19:20;16.27;;;8.63;;
18449;SDS011;9354;50.194;7.690;2023-08-20T02:21:48;15.37;;;9.23;;
18449;SDS011;9354;50.194;7.690;2023-08-20T02:24:16;16.37;;;9.23;;
18449;SDS011;9354;50.194;7.690;2023-08-20T02:26:43;13.33;;;8.93;;
18449;SDS011;9354;50.194;7.690;2023-08-20T02:29:10;13.80;;;9.63;;
18449;SDS011;9354;50.194;7.690;2023-08-20T02:31:38;12.23;;;9.97;;
18449;SDS011;9354;50.194;7.690;2023-08-20T02:34:05;18.90;;;10.00;;
18449;SDS011;9354;50.194;7.690;2023-08-20T02:36:33;15.97;;;9.67;;
18449;SDS011;9354;50.194;7.690;2023-08-20T02:39:01;14.27;;;9.03;;
18449;SDS011;9354;50.194;7.690;2023-08-20T02:41:29;40.77;;;11.23;;
18449;SDS011;9354;50.194;7.690;2023-08-20T02:43:57;19.23;;;11.30;;
18449;SDS011;9354;50.194;7.690;2023-08-20T02:46:24;13.03;;;9.73;;
18449;SDS011;9354;50.194;7.690;2023-08-20T02:48:52;22.13;;;10.67;;
18449;SDS011;9354;50.194;7.690;2023-08-20T02:51:19;335.97;;;15.57;;
18449;SDS011;9354;50.194;7.690;2023-08-20T02:53:46;18.53;;;11.80;;
18449;SDS011;9354;50.194;7.690;2023-08-20T02:56:15;19.40;;;12.00;;
18449;SDS011;9354;50.194;7.690;2023-08-20T02:58:42;19.00;;;10.73;;
18449;SDS011;9354;50.194;7.690;2023-08-20T03:01:17;16.07;;;9.93;;
18449;SDS011;9354;50.194;7.690;2023-08-20T03:03:45;14.87;;;10.20;;
18449;SDS011;9354;50.194;7.690;2023-08-20T03:06:14;16.53;;;9.43;;
18449;SDS011;9354;50.194;7.690;2023-08-20T03:08:41;14.93;;;10.07;;
18449;SDS011;9354;50.194;7.690;2023-08-20T03:11:09;12.80;;;9.30;;
18449;SDS011;9354;50.194;7.690;2023-08-20T03:13:37;14.93;;;8.97;;
18449;SDS011;9354;50.194;7.690;2023-08-20T03:16:05;17.10;;;9.23;;
18449;SDS011;9354;50.194;7.690;2023-08-20T03:18:32;14.37;;;8.80;;
18449;SDS011;9354;50.194;7.690;2023-08-20T03:21:00;17.60;;;9.13;;
18449;SDS011;9354;50.194;7.690;2023-08-20T03:23:28;18.27;;;11.73;;
18449;SDS011;9354;50.194;7.690;2023-08-20T03:25:57;22.90;;;12.47;;
18449;SDS011;9354;50.194;7.690;2023-08-20T03:28:25;23.43;;;11.47;;
18449;SDS011;9354;50.194;7.690;2023-08-20T03:30:53;55.80;;;13.40;;
18449;SDS011;9354;50.194;7.690;2023-08-20T03:33:21;137.33;;;14.87;;
18449;SDS011;9354;50.194;7.690;2023-08-20T03:35:48;121.53;;;13.97;;
18449;SDS011;9354;50.194;7.690;2023-08-20T03:38:15;59.93;;;13.83;;
18449;SDS011;9354;50.194;7.690;2023-08-20T03:40:43;23.77;;;13.33;;
18449;SDS011;9354;50.194;7.690;2023-08-20T03:43:10;22.53;;;13.50;;
18449;SDS011;9354;50.194;7.690;2023-08-20T03:45:38;28.03;;;14.83;;
18449;SDS011;9354;50.194;7.690;2023-08-20T03:48:07;23.53;;;13.87;;
18449;SDS011;9354;50.194;7.690;2023-08-20T03:50:34;37.13;;;13.77;;
18449;SDS011;9354;50.194;7.690;2023-08-20T03:53:01;18.33;;;12.73;;
18449;SDS011;9354;50.194;7.690;2023-08-20T03:55:29;46.13;;;11.57;;
18449;SDS011;9354;50.194;7.690;2023-08-20T03:57:56;22.90;;;12.67;;
18449;SDS011;9354;50.194;7.690;2023-08-20T04:00:24;17.87;;;11.67;;
18449;SDS011;9354;50.194;7.690;2023-08-20T04:02:51;15.57;;;10.80;;
18449;SDS011;9354;50.194;7.690;2023-08-20T04:05:20;16.23;;;10.83;;
18449;SDS011;9354;50.194;7.690;2023-08-20T04:07:47;14.73;;;9.50;;
18449;SDS011;9354;50.194;7.690;2023-08-20T04:10:14;15.80;;;9.63;;
18449;SDS011;9354;50.194;7.690;2023-08-20T04:12:42;15.70;;;8.90;;
18449;SDS011;9354;50.194;7.690;2023-08-20T04:15:09;19.07;;;9.00;;
18449;SDS011;9354;50.194;7.690;2023-08-20T04:17:37;32.17;;;10.00;;
18449;SDS011;9354;50.194;7.690;2023-08-20T04:20:05;14.67;;;8.17;;
18449;SDS011;9354;50.194;7.690;2023-08-20T04:22:36;14.33;;;8.67;;
18449;SDS011;9354;50.194;7.690;2023-08-20T04:25:04;50.90;;;8.73;;
18449;SDS011;9354;50.194;7.690;2023-08-20T04:27:32;20.93;;;6.93;;
18449;SDS011;9354;50.194;7.690;2023-08-20T04:29:59;11.07;;;6.63;;
18449;SDS011;9354;50.194;7.690;2023-08-20T04:32:26;33.23;;;6.50;;
18449;SDS011;9354;50.194;7.690;2023-08-20T04:34:54;9.87;;;6.13;;
18449;SDS011;9354;50.194;7.690;2023-08-20T04:37:21;8.73;;;6.37;;
18449;SDS011;9354;50.194;7.690;2023-08-20T04:39:50;8.83;;;6.30;;
18449;SDS011;9354;50.194;7.690;2023-08-20T04:42:18;6.63;;;5.27;;
18449;SDS011;9354;50.194;7.690;2023-08-20T04:44:45;8.67;;;6.53;;
18449;SDS011;9354;50.194;7.690;2023-08-20T04:47:12;10.67;;;7.03;;
18449;SDS011;9354;50.194;7.690;2023-08-20T04:49:40;14.73;;;7.00;;
18449;SDS011;9354;50.194;7.690;2023-08-20T04:52:07;12.90;;;6.60;;
18449;SDS011;9354;50.194;7.690;2023-08-20T04:54:35;11.50;;;6.53;;
18449;SDS011;9354;50.194;7.690;2023-08-20T04:57:04;12.00;;;7.30;;
18449;SDS011;9354;50.194;7.690;2023-08-20T04:59:31;15.17;;;7.80;;
18449;SDS011;9354;50.194;7.690;2023-08-20T05:01:59;9.27;;;6.60;;
18449;SDS011;9354;50.194;7.690;2023-08-20T05:04:26;12.63;;;6.87;;
18449;SDS011;9354;50.194;7.690;2023-08-20T05:06:53;10.50;;;7.30;;
18449;SDS011;9354;50.194;7.690;2023-08-20T05:09:21;12.90;;;8.37;;
18449;SDS011;9354;50.194;7.690;2023-08-20T05:11:48;14.77;;;7.97;;
18449;SDS011;9354;50.194;7.690;2023-08-20T05:14:17;9.07;;;7.17;;
18449;SDS011;9354;50.194;7.690;2023-08-20T05:16:44;12.87;;;8.57;;
18449;SDS011;9354;50.194;7.690;2023-08-20T05:19:12;10.00;;;7.13;;
18449;SDS011;9354;50.194;7.690;2023-08-20T05:21:39;10.73;;;7.30;;
18449;SDS011;9354;50.194;7.690;2023-08-20T05:24:07;11.77;;;7.47;;
18449;SDS011;9354;50.194;7.690;2023-08-20T05:26:34;22.87;;;9.90;;
18449;SDS011;9354;50.194;7.690;2023-08-20T05:29:02;30.17;;;11.93;;
18449;SDS011;9354;50.194;7.690;2023-08-20T05:31:31;44.83;;;15.37;;
18449;SDS011;9354;50.194;7.690;2023-08-20T05:33:58;37.83;;;15.13;;
18449;SDS011;9354;50.194;7.690;2023-08-20T05:36:26;48.40;;;16.23;;
18449;SDS011;9354;50.194;7.690;2023-08-20T05:38:53;49.47;;;15.97;;
18449;SDS011;9354;50.194;7.690;2023-08-20T05:41:21;43.17;;;15.63;;
18449;SDS011;9354;50.194;7.690;2023-08-20T05:43:48;52.87;;;17.90;;
18449;SDS011;9354;50.194;7.690;2023-08-20T05:46:16;51.57;;;19.53;;
18449;SDS011;9354;50.194;7.690;2023-08-20T05:48:44;53.73;;;20.23;;
18449;SDS011;9354;50.194;7.690;2023-08-20T05:51:12;53.60;;;21.07;;
18449;SDS011;9354;50.194;7.690;2023-08-20T05:53:39;60.63;;;22.43;;
18449;SDS011;9354;50.194;7.690;2023-08-20T05:56:06;56.57;;;22.17;;
18449;SDS011;9354;50.194;7.690;2023-08-20T05:58:34;75.27;;;24.73;;
18449;SDS011;9354;50.194;7.690;2023-08-20T06:01:02;60.57;;;23.00;;
18449;SDS011;9354;50.194;7.690;2023-08-20T06:03:29;79.00;;;24.33;;
18449;SDS011;9354;50.194;7.690;2023-08-20T06:05:58;90.70;;;24.40;;
18449;SDS011;9354;50.194;7.690;2023-08-20T06:08:25;74.43;;;25.37;;
18449;SDS011;9354;50.194;7.690;2023-08-20T06:10:53;74.53;;;25.23;;
18449;SDS011;9354;50.194;7.690;2023-08-20T06:13:20;76.70;;;25.60;;
18449;SDS011;9354;50.194;7.690;2023-08-20T06:15:47;68.50;;;23.93;;
18449;SDS011;9354;50.194;7.690;2023-08-20T06:18:15;71.50;;;26.10;;
18449;SDS011;9354;50.194;7.690;2023-08-20T06:20:42;63.93;;;26.37;;
18449;SDS011;9354;50.194;7.690;2023-08-20T06:23:11;71.10;;;27.23;;
18449;SDS011;9354;50.194;7.690;2023-08-20T06:25:38;68.70;;;26.77;;
18449;SDS011;9354;50.194;7.690;2023-08-20T06:28:06;60.67;;;24.30;;
18449;SDS011;9354;50.194;7.690;2023-08-20T06:30:35;64.50;;;24.53;;
18449;SDS011;9354;50.194;7.690;2023-08-20T06:33:02;56.80;;;24.00;;
18449;SDS011;9354;50.194;7.690;2023-08-20T06:35:30;59.23;;;24.83;;
18449;SDS011;9354;50.194;7.690;2023-08-20T06:37:58;58.27;;;21.57;;
18449;SDS011;9354;50.194;7.690;2023-08-20T06:40:26;56.80;;;21.37;;
18449;SDS011;9354;50.194;7.690;2023-08-20T06:42:54;60.87;;;20.27;;
18449;SDS011;9354;50.194;7.690;2023-08-20T06:45:21;56.20;;;20.43;;
18449;SDS011;9354;50.194;7.690;2023-08-20T06:47:48;56.53;;;20.33;;
18449;SDS011;9354;50.194;7.690;2023-08-20T06:50:16;49.37;;;20.03;;
18449;SDS011;9354;50.194;7.690;2023-08-20T06:52:43;53.90;;;20.57;;
18449;SDS011;9354;50.194;7.690;2023-08-20T06:55:11;64.73;;;21.00;;
18449;SDS011;9354;50.194;7.690;2023-08-20T06:57:40;51.93;;;19.40;;
18449;SDS011;9354;50.194;7.690;2023-08-20T07:00:08;50.67;;;18.53;;
18449;SDS011;9354;50.194;7.690;2023-08-20T07:02:35;47.53;;;19.60;;
18449;SDS011;9354;50.194;7.690;2023-08-20T07:05:03;43.63;;;18.10;;
18449;SDS011;9354;50.194;7.690;2023-08-20T07:07:31;45.53;;;18.43;;
18449;SDS011;9354;50.194;7.690;2023-08-20T07:09:58;46.77;;;18.10;;
18449;SDS011;9354;50.194;7.690;2023-08-20T07:12:25;53.80;;;19.87;;
18449;SDS011;9354;50.194;7.690;2023-08-20T07:14:54;48.77;;;19.23;;
18449;SDS011;9354;50.194;7.690;2023-08-20T07:17:21;45.57;;;18.13;;
18449;SDS011;9354;50.194;7.690;2023-08-20T07:19:49;44.93;;;17.70;;
18449;SDS011;9354;50.194;7.690;2023-08-20T07:22:16;37.70;;;17.33;;
18449;SDS011;9354;50.194;7.690;2023-08-20T07:24:44;39.90;;;17.57;;
18449;SDS011;9354;50.194;7.690;2023-08-20T07:27:11;38.87;;;17.80;;
18449;SDS011;9354;50.194;7.690;2023-08-20T07:29:40;41.53;;;18.40;;
18449;SDS011;9354;50.194;7.690;2023-08-20T07:32:09;40.37;;;18.07;;
18449;SDS011;9354;50.194;7.690;2023-08-20T07:34:37;40.20;;;17.40;;
18449;SDS011;9354;50.194;7.690;2023-08-20T07:37:04;34.90;;;16.87;;
18449;SDS011;9354;50.194;7.690;2023-08-20T07:39:32;47.03;;;18.20;;
18449;SDS011;9354;50.194;7.690;2023-08-20T07:41:59;39.70;;;18.63;;
18449;SDS011;9354;50.194;7.690;2023-08-20T07:44:26;41.47;;;17.80;;
18449;SDS011;9354;50.194;7.690;2023-08-20T07:46:54;34.17;;;16.47;;
18449;SDS011;9354;50.194;7.690;2023-08-20T07:49:23;34.23;;;15.60;;
18449;SDS011;9354;50.194;7.690;2023-08-20T07:51:50;28.13;;;15.37;;
18449;SDS011;9354;50.194;7.690;2023-08-20T07:54:20;31.10;;;14.60;;
18449;SDS011;9354;50.194;7.690;2023-08-20T07:56:47;26.67;;;14.60;;
18449;SDS011;9354;50.194;7.690;2023-08-20T07:59:14;29.33;;;14.30;;
18449;SDS011;9354;50.194;7.690;2023-08-20T08:01:42;26.77;;;13.97;;
18449;SDS011;9354;50.194;7.690;2023-08-20T08:04:09;30.63;;;14.63;;
18449;SDS011;9354;50.194;7.690;2023-08-20T08:06:38;25.20;;;14.50;;
18449;SDS011;9354;50.194;7.690;2023-08-20T08:09:17;25.93;;;14.33;;
18449;SDS011;9354;50.194;7.690;2023-08-20T08:11:46;29.13;;;15.67;;
18449;SDS011;9354;50.194;7.690;2023-08-20T08:14:14;29.00;;;15.87;;
18449;SDS011;9354;50.194;7.690;2023-08-20T08:16:42;34.13;;;16.70;;
18449;SDS011;9354;50.194;7.690;2023-08-20T08:19:09;28.33;;;16.93;;
18449;SDS011;9354;50.194;7.690;2023-08-20T08:21:39;32.57;;;17.63;;
18449;SDS011;9354;50.194;7.690;2023-08-20T08:24:08;31.17;;;16.00;;
18449;SDS011;9354;50.194;7.690;2023-08-20T08:26:36;32.87;;;17.13;;
18449;SDS011;9354;50.194;7.690;2023-08-20T08:29:04;26.50;;;15.13;;
18449;SDS011;9354;50.194;7.690;2023-08-20T08:31:32;33.73;;;15.87;;
18449;SDS011;9354;50.194;7.690;2023-08-20T08:34:00;29.80;;;16.00;;
18449;SDS011;9354;50.194;7.690;2023-08-20T08:36:28;27.53;;;15.77;;
18449;SDS011;9354;50.194;7.690;2023-08-20T08:38:57;27.73;;;14.53;;
18449;SDS011;9354;50.194;7.690;2023-08-20T08:41:25;26.67;;;14.43;;
18449;SDS011;9354;50.194;7.690;2023-08-20T08:43:54;23.47;;;14.13;;
18449;SDS011;9354;50.194;7.690;2023-08-20T08:46:22;23.37;;;13.77;;
18449;SDS011;9354;50.194;7.690;2023-08-20T08:48:51;23.03;;;12.80;;
18449;SDS011;9354;50.194;7.690;2023-08-20T08:51:19;19.27;;;10.77;;
18449;SDS011;9354;50.194;7.690;2023-08-20T08:53:47;19.23;;;10.83;;
18449;SDS011;9354;50.194;7.690;2023-08-20T08:56:15;17.30;;;11.20;;
18449;SDS011;9354;50.194;7.690;2023-08-20T08:58:44;16.67;;;10.60;;
18449;SDS011;9354;50.194;7.690;2023-08-20T09:01:11;16.53;;;10.20;;
18449;SDS011;9354;50.194;7.690;2023-08-20T09:03:38;17.87;;;9.40;;
18449;SDS011;9354;50.194;7.690;2023-08-20T09:06:08;14.87;;;10.07;;
18449;SDS011;9354;50.194;7.690;2023-08-20T09:08:36;20.77;;;9.43;;
18449;SDS011;9354;50.194;7.690;2023-08-20T09:11:03;16.97;;;8.73;;
18449;SDS011;9354;50.194;7.690;2023-08-20T09:13:35;18.97;;;9.60;;
18449;SDS011;9354;50.194;7.690;2023-08-20T09:16:04;16.13;;;9.43;;
18449;SDS011;9354;50.194;7.690;2023-08-20T09:18:32;11.90;;;8.47;;
18449;SDS011;9354;50.194;7.690;2023-08-20T09:21:01;10.10;;;7.43;;
18449;SDS011;9354;50.194;7.690;2023-08-20T09:23:29;16.03;;;7.83;;
18449;SDS011;9354;50.194;7.690;2023-08-20T09:25:57;10.67;;;7.53;;
18449;SDS011;9354;50.194;7.690;2023-08-20T09:28:27;13.57;;;7.60;;
18449;SDS011;9354;50.194;7.690;2023-08-20T09:30:59;18.23;;;8.50;;
18449;SDS011;9354;50.194;7.690;2023-08-20T09:33:28;13.82;;;7.35;;
18449;SDS011;9354;50.194;7.690;2023-08-20T09:35:56;11.87;;;7.33;;
18449;SDS011;9354;50.194;7.690;2023-08-20T09:38:23;11.52;;;6.57;;
18449;SDS011;9354;50.194;7.690;2023-08-20T09:40:51;12.15;;;7.70;;
18449;SDS011;9354;50.194;7.690;2023-08-20T09:43:23;10.55;;;6.40;;
18449;SDS011;9354;50.194;7.690;2023-08-20T09:45:54;8.23;;;6.70;;
18449;SDS011;9354;50.194;7.690;2023-08-20T09:48:23;8.73;;;6.32;;
18449;SDS011;9354;50.194;7.690;2023-08-20T09:50:56;11.45;;;7.10;;
18449;SDS011;9354;50.194;7.690;2023-08-20T09:53:26;9.50;;;6.47;;
18449;SDS011;9354;50.194;7.690;2023-08-20T09:56:02;10.07;;;6.20;;
18449;SDS011;9354;50.194;7.690;2023-08-20T09:58:36;14.65;;;6.80;;
18449;SDS011;9354;50.194;7.690;2023-08-20T10:01:04;7.78;;;6.25;;
18449;SDS011;9354;50.194;7.690;2023-08-20T10:03:34;9.98;;;6.28;;
18449;SDS011;9354;50.194;7.690;2023-08-20T10:06:03;14.23;;;6.10;;
18449;SDS011;9354;50.194;7.690;2023-08-20T10:08:32;7.75;;;5.93;;
18449;SDS011;9354;50.194;7.690;2023-08-20T10:11:00;7.72;;;5.50;;
18449;SDS011;9354;50.194;7.690;2023-08-20T10:13:28;10.00;;;5.53;;
18449;SDS011;9354;50.194;7.690;2023-08-20T10:15:55;8.48;;;5.53;;
18449;SDS011;9354;50.194;7.690;2023-08-20T10:18:23;7.55;;;4.93;;
18449;SDS011;9354;50.194;7.690;2023-08-20T10:20:52;11.13;;;5.05;;
18449;SDS011;9354;50.194;7.690;2023-08-20T10:23:20;7.93;;;5.05;;
18449;SDS011;9354;50.194;7.690;2023-08-20T10:25:48;6.38;;;4.65;;
18449;SDS011;9354;50.194;7.690;2023-08-20T10:28:19;7.97;;;5.13;;
18449;SDS011;9354;50.194;7.690;2023-08-20T10:31:03;8.10;;;5.05;;
18449;SDS011;9354;50.194;7.690;2023-08-20T10:33:33;9.50;;;5.05;;
18449;SDS011;9354;50.194;7.690;2023-08-20T10:36:10;12.50;;;5.50;;
18449;SDS011;9354;50.194;7.690;2023-08-20T10:38:41;7.20;;;5.10;;
18449;SDS011;9354;50.194;7.690;2023-08-20T10:41:11;10.05;;;5.88;;
18449;SDS011;9354;50.194;7.690;2023-08-20T10:43:39;6.38;;;4.78;;
18449;SDS011;9354;50.194;7.690;2023-08-20T10:46:13;8.63;;;4.82;;
18449;SDS011;9354;50.194;7.690;2023-08-20T10:48:42;10.80;;;4.80;;
18449;SDS011;9354;50.194;7.690;2023-08-20T10:51:14;6.93;;;4.72;;
18449;SDS011;9354;50.194;7.690;2023-08-20T10:53:43;10.38;;;4.95;;
18449;SDS011;9354;50.194;7.690;2023-08-20T10:56:15;7.10;;;4.80;;
18449;SDS011;9354;50.194;7.690;2023-08-20T10:58:44;9.15;;;5.10;;
18449;SDS011;9354;50.194;7.690;2023-08-20T11:01:13;6.07;;;4.80;;
18449;SDS011;9354;50.194;7.690;2023-08-20T11:03:41;6.18;;;5.28;;
18449;SDS011;9354;50.194;7.690;2023-08-20T11:06:09;7.50;;;5.32;;
18449;SDS011;9354;50.194;7.690;2023-08-20T11:08:38;9.57;;;5.00;;
18449;SDS011;9354;50.194;7.690;2023-08-20T11:11:06;8.43;;;5.50;;
18449;SDS011;9354;50.194;7.690;2023-08-20T11:13:34;8.25;;;5.35;;
18449;SDS011;9354;50.194;7.690;2023-08-20T11:16:03;7.03;;;5.28;;
18449;SDS011;9354;50.194;7.690;2023-08-20T11:18:31;6.75;;;4.95;;
18449;SDS011;9354;50.194;7.690;2023-08-20T11:20:59;7.20;;;5.57;;
18449;SDS011;9354;50.194;7.690;2023-08-20T11:23:29;6.30;;;5.20;;
18449;SDS011;9354;50.194;7.690;2023-08-20T11:25:59;5.88;;;4.47;;
18449;SDS011;9354;50.194;7.690;2023-08-20T11:28:29;6.68;;;4.18;;
18449;SDS011;9354;50.194;7.690;2023-08-20T11:30:56;8.77;;;4.55;;
18449;SDS011;9354;50.194;7.690;2023-08-20T11:33:23;8.20;;;4.43;;
18449;SDS011;9354;50.194;7.690;2023-08-20T11:35:51;6.00;;;4.82;;
18449;SDS011;9354;50.194;7.690;2023-08-20T11:38:20;8.02;;;4.82;;
18449;SDS011;9354;50.194;7.690;2023-08-20T11:40:49;9.52;;;4.65;;
18449;SDS011;9354;50.194;7.690;2023-08-20T11:43:18;6.03;;;4.78;;
18449;SDS011;9354;50.194;7.690;2023-08-20T11:45:46;7.43;;;5.00;;
18449;SDS011;9354;50.194;7.690;2023-08-20T11:48:15;6.95;;;4.85;;
18449;SDS011;9354;50.194;7.690;2023-08-20T11:50:43;6.45;;;4.45;;
18449;SDS011;9354;50.194;7.690;2023-08-20T11:53:11;7.60;;;4.75;;
18449;SDS011;9354;50.194;7.690;2023-08-20T11:55:39;5.38;;;4.32;;
18449;SDS011;9354;50.194;7.690;2023-08-20T11:58:11;6.10;;;4.68;;
18449;SDS011;9354;50.194;7.690;2023-08-20T12:00:41;6.28;;;4.43;;
18449;SDS011;9354;50.194;7.690;2023-08-20T12:03:08;6.75;;;4.00;;
18449;SDS011;9354;50.194;7.690;2023-08-20T12:05:36;6.53;;;4.35;;
18449;SDS011;9354;50.194;7.690;2023-08-20T12:08:07;8.38;;;4.72;;
18449;SDS011;9354;50.194;7.690;2023-08-20T12:10:35;6.28;;;4.35;;
18449;SDS011;9354;50.194;7.690;2023-08-20T12:13:08;7.47;;;4.53;;
18449;SDS011;9354;50.194;7.690;2023-08-20T12:15:35;6.97;;;5.32;;
18449;SDS011;9354;50.194;7.690;2023-08-20T12:18:05;6.45;;;5.07;;
18449;SDS011;9354;50.194;7.690;2023-08-20T12:20:34;6.15;;;4.40;;
18449;SDS011;9354;50.194;7.690;2023-08-20T12:23:03;7.20;;;4.15;;
18449;SDS011;9354;50.194;7.690;2023-08-20T12:25:32;7.25;;;4.57;;
18449;SDS011;9354;50.194;7.690;2023-08-20T12:28:01;7.03;;;4.30;;
18449;SDS011;9354;50.194;7.690;2023-08-20T12:30:30;6.93;;;4.68;;
18449;SDS011;9354;50.194;7.690;2023-08-20T12:32:57;7.03;;;3.85;;
18449;SDS011;9354;50.194;7.690;2023-08-20T12:35:26;6.20;;;4.32;;
18449;SDS011;9354;50.194;7.690;2023-08-20T12:37:54;7.40;;;4.40;;
18449;SDS011;9354;50.194;7.690;2023-08-20T12:40:21;6.80;;;4.15;;
18449;SDS011;9354;50.194;7.690;2023-08-20T12:42:48;5.32;;;4.20;;
18449;SDS011;9354;50.194;7.690;2023-08-20T12:45:16;5.68;;;4.70;;
18449;SDS011;9354;50.194;7.690;2023-08-20T12:47:43;10.18;;;4.65;;
18449;SDS011;9354;50.194;7.690;2023-08-20T12:50:10;5.65;;;4.10;;
18449;SDS011;9354;50.194;7.690;2023-08-20T12:52:41;5.30;;;4.55;;
18449;SDS011;9354;50.194;7.690;2023-08-20T12:55:08;7.10;;;4.70;;
18449;SDS011;9354;50.194;7.690;2023-08-20T12:57:36;6.90;;;4.50;;
18449;SDS011;9354;50.194;7.690;2023-08-20T13:00:18;6.53;;;4.20;;
18449;SDS011;9354;50.194;7.690;2023-08-20T13:02:45;8.38;;;3.78;;
18449;SDS011;9354;50.194;7.690;2023-08-20T13:05:14;7.05;;;3.78;;
18449;SDS011;9354;50.194;7.690;2023-08-20T13:07:43;5.82;;;3.45;;
18449;SDS011;9354;50.194;7.690;2023-08-20T13:10:11;6.22;;;4.07;;
18449;SDS011;9354;50.194;7.690;2023-08-20T13:12:39;5.03;;;3.38;;
18449;SDS011;9354;50.194;7.690;2023-08-20T13:15:08;7.25;;;3.80;;
18449;SDS011;9354;50.194;7.690;2023-08-20T13:17:37;7.05;;;4.43;;
18449;SDS011;9354;50.194;7.690;2023-08-20T13:20:05;5.50;;;4.25;;
18449;SDS011;9354;50.194;7.690;2023-08-20T13:22:33;5.80;;;4.45;;
18449;SDS011;9354;50.194;7.690;2023-08-20T13:25:03;7.43;;;4.65;;
18449;SDS011;9354;50.194;7.690;2023-08-20T13:27:31;7.25;;;4.95;;
18449;SDS011;9354;50.194;7.690;2023-08-20T13:29:58;7.85;;;4.85;;
18449;SDS011;9354;50.194;7.690;2023-08-20T13:32:26;6.82;;;4.90;;
18449;SDS011;9354;50.194;7.690;2023-08-20T13:34:54;7.53;;;4.90;;
18449;SDS011;9354;50.194;7.690;2023-08-20T13:37:21;7.10;;;4.15;;
18449;SDS011;9354;50.194;7.690;2023-08-20T13:39:49;4.57;;;4.05;;
18449;SDS011;9354;50.194;7.690;2023-08-20T13:42:17;4.65;;;3.53;;
18449;SDS011;9354;50.194;7.690;2023-08-20T13:44:45;5.82;;;4.05;;
18449;SDS011;9354;50.194;7.690;2023-08-20T13:47:12;6.25;;;4.20;;
18449;SDS011;9354;50.194;7.690;2023-08-20T13:49:40;5.18;;;3.83;;
18449;SDS011;9354;50.194;7.690;2023-08-20T13:52:07;6.05;;;4.40;;
18449;SDS011;9354;50.194;7.690;2023-08-20T13:54:36;8.73;;;4.22;;
18449;SDS011;9354;50.194;7.690;2023-08-20T13:57:03;7.03;;;4.10;;
18449;SDS011;9354;50.194;7.690;2023-08-20T13:59:32;7.68;;;3.47;;
18449;SDS011;9354;50.194;7.690;2023-08-20T14:02:00;4.82;;;3.50;;
18449;SDS011;9354;50.194;7.690;2023-08-20T14:04:27;5.10;;;3.72;;
18449;SDS011;9354;50.194;7.690;2023-08-20T14:06:55;7.28;;;3.80;;
18449;SDS011;9354;50.194;7.690;2023-08-20T14:09:22;8.88;;;3.83;;
18449;SDS011;9354;50.194;7.690;2023-08-20T14:11:50;5.57;;;4.00;;
18449;SDS011;9354;50.194;7.690;2023-08-20T14:14:18;7.18;;;4.45;;
18449;SDS011;9354;50.194;7.690;2023-08-20T14:16:47;6.20;;;4.30;;
18449;SDS011;9354;50.194;7.690;2023-08-20T14:19:14;7.90;;;3.85;;
18449;SDS011;9354;50.194;7.690;2023-08-20T14:21:41;11.10;;;4.07;;
18449;SDS011;9354;50.194;7.690;2023-08-20T14:24:09;7.68;;;3.95;;
18449;SDS011;9354;50.194;7.690;2023-08-20T14:26:36;4.10;;;3.70;;
18449;SDS011;9354;50.194;7.690;2023-08-20T14:29:03;7.47;;;4.63;;
18449;SDS011;9354;50.194;7.690;2023-08-20T14:31:31;6.78;;;4.20;;
18449;SDS011;9354;50.194;7.690;2023-08-20T14:33:59;4.65;;;3.75;;
18449;SDS011;9354;50.194;7.690;2023-08-20T14:36:27;6.53;;;3.95;;
18449;SDS011;9354;50.194;7.690;2023-08-20T14:38:55;5.85;;;4.35;;
18449;SDS011;9354;50.194;7.690;2023-08-20T14:41:22;7.80;;;3.97;;
18449;SDS011;9354;50.194;7.690;2023-08-20T14:43:49;7.93;;;4.07;;
18449;SDS011;9354;50.194;7.690;2023-08-20T14:46:17;7.90;;;4.30;;
18449;SDS011;9354;50.194;7.690;2023-08-20T14:48:44;8.30;;;3.97;;
18449;SDS011;9354;50.194;7.690;2023-08-20T14:51:13;10.18;;;4.47;;
18449;SDS011;9354;50.194;7.690;2023-08-20T14:53:40;7.43;;;3.90;;
18449;SDS011;9354;50.194;7.690;2023-08-20T14:56:08;5.40;;;3.80;;
18449;SDS011;9354;50.194;7.690;2023-08-20T14:58:35;5.38;;;4.18;;